Airport View

Enter AWOS ICAO identifier for current METAR.

ex. KFNL

KMOP 181116Z AUTO 08008KT 1 1/4SM -SN BKN007 BKN010 OVC016 M05/M05 A2999 RMK AO2 T10481053

18 Jan 2020 11:23

Frequency: 133.025

Phone: 989-773-2885

Other Area AWOS: KAMN - KIKW - KMBS - KRQB

TAF KMBS 180529Z 1806/1906 11013G19KT 1 1/2SM -SN BKN015 OVC025 TEMPO 1810/1814 1/2SM SN OVC004 FM181500 16014G22KT 3SM -FZDZ OVC012 FM181700 19015G24KT 4SM -DZ OVC015 FM182000 26022G32KT P6SM BKN022 OVC035